• Join FlightAware (Why Join?)
  • Login
  • US Flag 
02:30AM EDT


 

Airport Tracker/Info


-or-


 

Live Flight TrackerFlight Track Log ✈ N1944E ✈ 14 Aug 2013 ✈ KCOD - KJAC

Flight Track Log - Related Links

Times and Time Zones

All times are in EDT time to prevent confusion due to time zone crossing. See the N1944E flight status page for this flight to view local times or setup timezone preferences in your user account.

Time Position Orientation Groundspeed Altitude Reporting Facility
EDT Latitude Longitude Course Direction KTS MPH feet Rate Location/Type
09:45AM 44.5181 -109.0456 238° Southwest 137 158 8,100  Level Salt Lake Center
09:46AM 44.4875 -109.0767 216° Southwest 138 159 8,800 720 Climbing Salt Lake Center
09:47AM 44.4678 -109.1206 238° Southwest 136 157 9,600 720 Climbing Salt Lake Center
09:48AM 44.4464 -109.1650 236° Southwest 136 157 10,300 780 Climbing Salt Lake Center
09:49AM 44.4208 -109.2186 236° Southwest 137 158 11,300 780 Climbing Salt Lake Center
09:50AM 44.3989 -109.2622 235° Southwest 138 159 12,000 720 Climbing Salt Lake Center
09:51AM 44.3461 -109.3355 238° Southwest  Level FlightAware Approximate
09:51AM 44.3758 -109.3086 235° Southwest 142 163 12,800  Level Salt Lake Center
09:53AM 44.3506 -109.3528 231° Southwest 145 167 13,600 780 Climbing Salt Lake Center
09:54AM 44.3247 -109.3986 232° Southwest 149 171 14,400 780 Climbing Salt Lake Center
09:55AM 44.3039 -109.4472 239° Southwest 147 169 15,300 720 Climbing Salt Lake Center
09:56AM 44.2775 -109.4975 234° Southwest 145 167 15,900 300 Climbing Salt Lake Center
09:57AM 44.2517 -109.5514 236° Southwest 163 188 16,000  Climbing Salt Lake Center
09:58AM 44.2128 -109.6161 230° Southwest 186 214 16,000  Level Salt Lake Center
09:59AM 44.1847 -109.6750 236° Southwest 190 219 16,000  Level Salt Lake Center
10:00AM 44.1603 -109.7294 238° Southwest 181 208 16,000  Level Salt Lake Center
10:01AM 44.1300 -109.7942 237° Southwest 179 206 16,000  Level Salt Lake Center
10:02AM 44.1028 -109.8489 235° Southwest 179 206 16,000  Level Salt Lake Center
10:03AM 44.0706 -109.9119 235° Southwest 179 206 16,000  Level Salt Lake Center
10:04AM 44.0406 -109.9639 231° Southwest 179 206 16,000 -540 Level Salt Lake Center
10:05AM 44.0042 -110.0297 232° Southwest 189 217 14,900 -600 Descending Salt Lake Center
10:06AM 43.9697 -110.0911 232° Southwest 203 234 14,800 -60 Descending Salt Lake Center
10:07AM 43.9414 -110.1444 234° Southwest 190 219 14,800 -480 Level Salt Lake Center
10:08AM 43.9061 -110.2108 234° Southwest 190 219 13,900 -480 Descending Salt Lake Center
10:09AM 43.8728 -110.2678 231° Southwest 196 226 13,900 -480 Level Salt Lake Center
10:10AM 43.8336 -110.3308 229° Southwest 195 224 13,000 -480 Descending Salt Lake Center
10:11AM 43.8017 -110.3850 231° Southwest 193 222 13,000 -180 Level Salt Lake Center
10:12AM 43.7728 -110.4350 231° Southwest 186 214 12,700 -840 Descending Salt Lake Center
10:13AM 43.7442 -110.5008 239° Southwest 181 208 11,400 -1,500 Descending Salt Lake Center
10:14AM 43.7425 -110.5839 268° West 199 229 9,700 -1,440 Descending Salt Lake Center
10:15AM 43.7392 -110.6606 267° West 208 239 8,500 -600 Descending Salt Lake Center
10:16AM 43.7064 -110.6894 213° Southwest 168 193 8,500 -420 Level Salt Lake Center
10:17AM 43.6708 -110.7069 200° South 147 169 7,700 -720 Descending Salt Lake Center
10:18AM 43.6392 -110.7222 199° South 134 154 7,100 -600 Descending Salt Lake Center
10:19AM 43.6097 -110.7369 200° South 121 139 6,500 -600 Descending Salt Lake Center